Time;durP1;ratioP1;P1;durP2;ratioP2;P2;SDS_P1;SDS_P2;PMS_P1;PMS_P2;Temp;Humidity;BMP_temperature;BMP_pressure;BME280_temperature;BME280_humidity;BME280_pressure;Samples;Min_cycle;Max_cycle;Signal;HPM_P1;HPM_P2
2022/02/14 00:00:01;;;;;;;11.35;5.38;;;3.30;99.90;;;;;;2586520;54;20910;31
2022/02/14 00:02:46;;;;;;;9.40;4.75;;;3.20;99.90;;;;;;2586521;54;20157;31
2022/02/14 00:05:20;;;;;;;11.20;4.75;;;3.20;99.90;;;;;;2586461;54;20839;31
2022/02/14 00:07:55;;;;;;;;;;;3.20;99.90;;;;;;2586921;54;20060;31
2022/02/14 00:10:27;;;;;;;6.18;3.92;;;3.20;99.90;;;;;;2587845;46;20762;31
2022/02/14 00:12:59;;;;;;;7.57;4.45;;;3.20;99.90;;;;;;2600371;54;20856;31
2022/02/14 00:15:32;;;;;;;7.55;4.40;;;3.20;99.90;;;;;;2684312;39;20419;31
2022/02/14 00:18:07;;;;;;;7.32;4.13;;;3.30;99.90;;;;;;2589239;46;20034;31
2022/02/14 00:20:43;;;;;;;10.55;4.82;;;3.20;99.90;;;;;;2586442;54;20031;31
2022/02/14 00:23:17;;;;;;;10.43;4.82;;;3.30;99.90;;;;;;2586285;54;20030;31
2022/02/14 00:25:49;;;;;;;11.40;5.00;;;3.30;99.90;;;;;;2586615;54;20821;31
2022/02/14 00:28:23;;;;;;;8.65;3.70;;;3.30;99.90;;;;;;2586548;54;20844;31
2022/02/14 00:30:55;;;;;;;11.32;4.65;;;3.40;99.90;;;;;;2586691;54;20870;31
2022/02/14 00:33:30;;;;;;;7.88;4.97;;;3.40;99.90;;;;;;2586404;54;21072;31
2022/02/14 00:36:03;;;;;;;13.90;4.70;;;3.50;99.90;;;;;;2586957;54;20767;31
2022/02/14 00:38:35;;;;;;;6.15;4.55;;;3.50;99.90;;;;;;2586680;54;20026;31
2022/02/14 00:41:08;;;;;;;7.90;4.23;;;3.60;99.90;;;;;;2586495;54;20033;31
2022/02/14 00:43:43;;;;;;;8.65;4.55;;;3.60;99.90;;;;;;2589698;54;20235;31
2022/02/14 00:46:16;;;;;;;8.65;4.30;;;3.60;99.90;;;;;;2586994;54;20026;31
2022/02/14 00:48:53;;;;;;;7.60;4.00;;;3.60;99.90;;;;;;2586222;54;20046;31
2022/02/14 00:51:27;;;;;;;9.48;4.82;;;3.60;99.90;;;;;;2586458;54;20052;31
2022/02/14 00:53:59;;;;;;;8.43;4.77;;;3.60;99.90;;;;;;2586185;54;20026;31
2022/02/14 00:56:32;;;;;;;7.72;5.00;;;3.70;99.90;;;;;;2586342;54;21554;31
2022/02/14 00:59:03;;;;;;;8.85;5.38;;;3.70;99.90;;;;;;2586394;46;20023;31
2022/02/14 01:01:36;;;;;;;9.13;5.05;;;3.70;99.90;;;;;;2586092;54;20042;31
2022/02/14 01:04:14;;;;;;;9.77;4.90;;;3.70;99.90;;;;;;2586048;54;20030;31
2022/02/14 01:06:50;;;;;;;11.57;5.55;;;3.70;99.90;;;;;;2586137;54;20759;31
2022/02/14 01:09:24;;;;;;;8.90;5.40;;;3.80;99.90;;;;;;2586067;54;20907;31
2022/02/14 01:11:58;;;;;;;9.73;6.00;;;3.80;99.90;;;;;;2586286;54;19976;31
2022/02/14 01:14:32;;;;;;;8.75;6.65;;;3.80;99.90;;;;;;2586364;54;20022;31
2022/02/14 01:17:06;;;;;;;8.10;5.95;;;3.90;99.90;;;;;;2586150;54;20530;31
2022/02/14 01:19:44;;;;;;;10.30;6.60;;;3.90;99.90;;;;;;2585976;54;20830;31
2022/02/14 01:22:15;;;;;;;10.45;6.30;;;3.90;99.90;;;;;;2586133;54;20854;31
2022/02/14 01:24:49;;;;;;;8.25;5.85;;;3.90;99.90;;;;;;2586185;54;20819;31
2022/02/14 01:27:21;;;;;;;9.77;6.22;;;3.90;99.90;;;;;;2586427;54;20130;31
2022/02/14 01:29:53;;;;;;;9.18;6.43;;;3.80;99.90;;;;;;2586961;54;20854;31
2022/02/14 01:32:26;;;;;;;10.30;6.35;;;3.90;99.90;;;;;;2586528;54;20041;31
2022/02/14 01:35:05;;;;;;;10.00;6.40;;;3.80;99.90;;;;;;2585883;54;20887;31
2022/02/14 01:37:39;;;;;;;9.30;5.73;;;3.80;99.90;;;;;;2588884;39;20867;31
2022/02/14 01:40:14;;;;;;;11.10;5.95;;;3.80;99.90;;;;;;2604793;46;20026;31
2022/02/14 01:42:47;;;;;;;13.50;6.90;;;3.70;99.90;;;;;;2586232;54;20835;31
2022/02/14 01:45:21;;;;;;;10.30;6.88;;;3.70;99.90;;;;;;2585937;54;20897;31
2022/02/14 01:47:53;;;;;;;13.15;7.20;;;3.70;99.90;;;;;;2586088;54;20757;31
2022/02/14 01:50:27;;;;;;;12.95;7.45;;;3.60;99.90;;;;;;2587261;46;21577;31
2022/02/14 01:53:00;;;;;;;12.88;7.55;;;3.50;99.90;;;;;;2586091;54;20055;31
2022/02/14 01:55:32;;;;;;;10.80;6.40;;;3.40;99.90;;;;;;2586297;54;20800;31
2022/02/14 01:58:08;;;;;;;10.75;6.40;;;3.40;99.90;;;;;;2586320;54;20770;31
2022/02/14 02:00:40;;;;;;;14.63;7.18;;;3.30;99.90;;;;;;2684089;39;20360;31
2022/02/14 02:03:11;;;;;;;11.25;7.35;;;3.30;99.90;;;;;;2586002;54;20161;31
2022/02/14 02:05:49;;;;;;;12.55;6.68;;;3.10;99.90;;;;;;2586179;54;20022;31
2022/02/14 02:08:20;;;;;;;11.95;7.00;;;3.20;99.90;;;;;;2586196;54;20841;31
2022/02/14 02:12:22;;;;;;;12.52;6.97;;;3.20;99.90;;;;;;2586090;54;20745;31
2022/02/14 02:13:49;;;;;;;14.80;7.45;;;3.10;99.90;;;;;;2585990;54;19994;31
2022/02/14 02:16:23;;;;;;;13.85;7.95;;;3.10;99.90;;;;;;2586561;54;20854;31
2022/02/14 02:18:55;;;;;;;14.20;7.45;;;3.10;99.90;;;;;;2604624;46;20857;31
2022/02/14 02:21:30;;;;;;;15.63;8.20;;;2.90;99.90;;;;;;2586312;54;20054;31
2022/02/14 02:24:02;;;;;;;17.45;8.45;;;2.80;99.90;;;;;;2604761;47;20846;31
2022/02/14 02:26:39;;;;;;;19.85;9.20;;;2.70;99.90;;;;;;2585916;54;20034;31
2022/02/14 02:29:11;;;;;;;18.40;9.95;;;2.60;99.90;;;;;;2603939;47;20058;31
2022/02/14 02:31:44;;;;;;;17.20;8.70;;;2.60;99.90;;;;;;2585935;54;20062;31
2022/02/14 02:34:16;;;;;;;16.23;9.18;;;2.50;99.90;;;;;;2585900;54;20930;31
2022/02/14 02:36:51;;;;;;;18.63;9.23;;;2.40;99.90;;;;;;2585930;54;20890;31
2022/02/14 02:39:25;;;;;;;16.63;9.27;;;2.40;99.90;;;;;;2604709;47;20891;31
2022/02/14 02:42:02;;;;;;;19.60;8.77;;;2.40;99.90;;;;;;2586155;54;20053;31
2022/02/14 02:44:35;;;;;;;16.87;8.53;;;2.40;99.90;;;;;;2586496;47;20446;31
2022/02/14 02:47:09;;;;;;;15.15;8.30;;;2.40;99.90;;;;;;2586624;54;21407;31
2022/02/14 02:49:41;;;;;;;17.67;8.43;;;2.40;99.90;;;;;;2586649;54;20041;31
2022/02/14 02:52:17;;;;;;;16.10;8.00;;;2.30;99.90;;;;;;2684544;39;20399;31
2022/02/14 02:54:50;;;;;;;12.27;7.47;;;2.30;99.90;;;;;;2586573;54;20028;31
2022/02/14 02:57:26;;;;;;;16.20;8.40;;;2.40;99.90;;;;;;2586714;54;20027;31
2022/02/14 02:59:58;;;;;;;16.10;7.97;;;2.40;99.90;;;;;;2586943;54;20862;31
2022/02/14 03:02:32;;;;;;;14.35;7.75;;;2.40;99.90;;;;;;2586729;54;20061;31
2022/02/14 03:05:03;;;;;;;16.90;9.80;;;2.40;99.90;;;;;;2586497;54;20046;31
2022/02/14 03:07:35;;;;;;;16.50;9.60;;;2.50;99.90;;;;;;2586005;54;20040;31
2022/02/14 03:10:07;;;;;;;16.65;9.70;;;2.50;99.90;;;;;;2586490;54;20903;31
2022/02/14 03:12:41;;;;;;;17.60;9.63;;;2.50;99.90;;;;;;2586606;54;20926;31
2022/02/14 03:15:13;;;;;;;16.85;8.50;;;2.40;99.90;;;;;;2586585;54;21426;31
2022/02/14 03:17:47;;;;;;;15.25;7.60;;;2.50;99.90;;;;;;2586798;54;20828;31
2022/02/14 03:20:21;;;;;;;14.40;8.60;;;2.40;99.90;;;;;;2605101;46;20030;31
2022/02/14 03:22:53;;;;;;;16.60;8.80;;;2.40;99.90;;;;;;2586571;54;20019;31
2022/02/14 03:25:26;;;;;;;13.48;7.82;;;2.40;99.90;;;;;;2684193;39;21371;31
2022/02/14 03:28:03;;;;;;;11.30;7.35;;;2.50;99.90;;;;;;2586706;54;20749;31
2022/02/14 03:30:35;;;;;;;14.93;7.47;;;2.50;99.90;;;;;;2586917;54;20648;31
2022/02/14 03:33:09;;;;;;;11.60;8.60;;;2.60;99.90;;;;;;2586482;54;20053;31
2022/02/14 03:35:41;;;;;;;16.48;7.38;;;2.70;99.90;;;;;;2586576;54;20958;31
2022/02/14 03:38:15;;;;;;;9.95;6.32;;;2.70;99.90;;;;;;2586354;54;20022;31
2022/02/14 03:40:50;;;;;;;14.00;8.00;;;2.80;99.90;;;;;;2586526;54;20894;31
2022/02/14 03:43:25;;;;;;;12.65;7.07;;;2.90;99.90;;;;;;2586543;54;20035;31
2022/02/14 03:45:58;;;;;;;12.70;7.10;;;3.00;99.90;;;;;;2604783;46;20086;31
2022/02/14 03:48:32;;;;;;;11.52;6.97;;;3.10;99.90;;;;;;2586376;54;20872;31
2022/02/14 03:51:05;;;;;;;11.13;7.20;;;3.10;99.90;;;;;;2684638;39;21242;31
2022/02/14 03:53:39;;;;;;;10.77;6.90;;;3.10;99.90;;;;;;2586456;54;20099;31
2022/02/14 03:56:12;;;;;;;12.40;7.47;;;3.30;99.90;;;;;;2586580;54;20440;31
2022/02/14 03:58:49;;;;;;;10.98;6.72;;;3.20;99.90;;;;;;2586133;54;20292;31
2022/02/14 04:01:21;;;;;;;13.30;7.40;;;3.30;99.90;;;;;;2586835;54;19935;31
2022/02/14 04:03:54;;;;;;;11.90;7.10;;;3.30;99.90;;;;;;2586712;54;20876;31
2022/02/14 04:06:28;;;;;;;11.30;6.50;;;3.30;99.90;;;;;;2586423;54;20834;31
2022/02/14 04:09:00;;;;;;;10.00;6.72;;;3.30;99.90;;;;;;2604781;46;20466;31
2022/02/14 04:11:34;;;;;;;12.02;7.28;;;3.30;99.90;;;;;;2586341;54;20038;31
2022/02/14 04:14:09;;;;;;;8.45;6.00;;;3.40;99.90;;;;;;2684669;39;20329;31
2022/02/14 04:16:43;;;;;;;11.20;6.80;;;3.40;99.90;;;;;;2681500;39;20444;31
2022/02/14 04:19:15;;;;;;;10.20;6.60;;;3.40;99.90;;;;;;2586667;54;20049;31
2022/02/14 04:21:48;;;;;;;14.40;6.60;;;3.40;99.90;;;;;;2587021;46;20402;31
2022/02/14 04:24:22;;;;;;;13.75;7.75;;;3.50;99.90;;;;;;2591640;46;20084;31
2022/02/14 04:26:56;;;;;;;12.80;6.70;;;3.40;99.90;;;;;;2585619;54;20141;31
2022/02/14 04:29:31;;;;;;;15.32;6.75;;;3.30;99.90;;;;;;2589837;54;20026;31
2022/02/14 04:32:03;;;;;;;12.77;7.72;;;3.30;99.90;;;;;;2586602;54;20910;31
2022/02/14 04:34:34;;;;;;;12.05;7.18;;;3.30;99.90;;;;;;2586150;54;20019;31
2022/02/14 04:37:08;;;;;;;11.77;7.10;;;3.30;99.90;;;;;;2586332;54;20729;31
2022/02/14 04:39:42;;;;;;;15.02;8.00;;;3.30;99.90;;;;;;2586488;54;20669;31
2022/02/14 04:42:16;;;;;;;12.50;7.60;;;3.20;99.90;;;;;;2591366;54;20038;31
2022/02/14 04:44:51;;;;;;;12.63;8.00;;;3.20;99.90;;;;;;2586275;54;20046;31
2022/02/14 04:47:22;;;;;;;14.10;7.30;;;3.20;99.90;;;;;;2586690;54;20023;31
2022/02/14 04:49:56;;;;;;;14.25;8.00;;;3.10;99.90;;;;;;2586311;54;20262;31
2022/02/14 04:52:28;;;;;;;14.20;7.43;;;3.20;99.90;;;;;;2596103;46;20861;31
2022/02/14 04:55:00;;;;;;;9.82;6.30;;;3.10;99.90;;;;;;2586311;54;19941;31
2022/02/14 04:57:32;;;;;;;13.83;7.87;;;3.10;99.90;;;;;;2586573;54;21218;31
2022/02/14 05:00:10;;;;;;;12.20;7.30;;;3.10;99.90;;;;;;2586141;54;21166;31
2022/02/14 05:02:45;;;;;;;17.60;7.68;;;3.10;99.90;;;;;;2586465;54;20037;31
2022/02/14 05:05:21;;;;;;;12.32;7.53;;;3.20;99.90;;;;;;2586123;54;20803;31
2022/02/14 05:07:55;;;;;;;13.00;8.35;;;3.10;99.90;;;;;;2585975;54;20918;31
2022/02/14 05:10:28;;;;;;;16.20;8.35;;;3.10;99.90;;;;;;2586443;54;19958;31
2022/02/14 05:13:02;;;;;;;13.88;7.65;;;3.10;99.90;;;;;;2586400;54;20362;31
2022/02/14 05:15:38;;;;;;;15.13;7.90;;;3.10;99.90;;;;;;2586488;54;20033;31
2022/02/14 05:18:10;;;;;;;12.20;7.50;;;3.10;99.90;;;;;;2586321;54;20027;31
2022/02/14 05:20:42;;;;;;;13.00;7.93;;;3.10;99.90;;;;;;2589472;46;20962;31
2022/02/14 05:23:16;;;;;;;15.63;7.70;;;3.10;99.90;;;;;;2586284;54;20733;31
2022/02/14 05:25:50;;;;;;;12.95;8.00;;;3.10;99.90;;;;;;2591278;46;19950;31
2022/02/14 05:28:23;;;;;;;10.60;7.20;;;3.10;99.90;;;;;;2592220;46;20777;31
2022/02/14 05:31:00;;;;;;;12.15;8.07;;;3.10;99.90;;;;;;2585738;54;20685;31
2022/02/14 05:33:32;;;;;;;15.90;9.00;;;3.10;99.90;;;;;;2586369;54;20816;31
2022/02/14 05:36:05;;;;;;;13.95;8.60;;;3.10;99.90;;;;;;2586359;54;20867;31
2022/02/14 05:38:37;;;;;;;15.93;7.72;;;3.10;99.90;;;;;;2586057;54;20060;31
2022/02/14 05:41:12;;;;;;;13.35;9.00;;;3.10;99.90;;;;;;2585676;54;20628;31
2022/02/14 05:43:46;;;;;;;14.20;8.70;;;3.10;99.90;;;;;;2586302;54;20023;31
2022/02/14 05:46:21;;;;;;;19.67;8.90;;;3.10;99.90;;;;;;2593164;39;21145;31
2022/02/14 05:48:55;;;;;;;11.65;7.85;;;3.10;99.90;;;;;;2586267;54;20018;31
2022/02/14 05:51:28;;;;;;;13.48;8.32;;;3.10;99.90;;;;;;2586324;54;20795;31
2022/02/14 05:54:02;;;;;;;17.15;8.10;;;3.10;99.90;;;;;;2586139;54;20040;31
2022/02/14 05:56:35;;;;;;;14.90;9.20;;;3.00;99.90;;;;;;2586090;54;20046;31
2022/02/14 05:59:08;;;;;;;14.85;8.75;;;3.00;99.90;;;;;;2586072;54;20866;31
2022/02/14 06:01:45;;;;;;;14.45;8.30;;;3.00;99.90;;;;;;2586061;54;20851;31
2022/02/14 06:04:21;;;;;;;15.10;9.15;;;3.00;99.90;;;;;;2602099;54;20061;31
2022/02/14 06:06:53;;;;;;;13.37;8.50;;;3.00;99.90;;;;;;2601005;54;20060;31
2022/02/14 06:09:30;;;;;;;12.75;7.95;;;3.00;99.90;;;;;;2587711;54;20305;-76
2022/02/14 06:12:02;;;;;;;14.20;9.55;;;2.90;99.90;;;;;;2585785;54;20046;31
2022/02/14 06:14:36;;;;;;;13.93;9.95;;;2.90;99.90;;;;;;2587091;46;20805;31
2022/02/14 06:17:12;;;;;;;15.63;9.30;;;2.90;99.90;;;;;;2585919;54;20029;31
2022/02/14 06:19:46;;;;;;;13.15;8.32;;;2.90;99.90;;;;;;2585914;54;20737;31
2022/02/14 06:22:21;;;;;;;12.55;8.75;;;2.90;99.90;;;;;;2587247;54;20454;31
2022/02/14 06:24:53;;;;;;;14.20;8.60;;;2.90;99.90;;;;;;2587754;54;20052;31
2022/02/14 06:27:27;;;;;;;15.80;8.05;;;3.00;99.90;;;;;;2587645;54;21131;31
2022/02/14 06:30:00;;;;;;;11.53;8.50;;;2.90;99.90;;;;;;2586793;54;20041;31
2022/02/14 06:32:40;;;;;;;16.60;8.55;;;3.00;99.90;;;;;;2587814;54;20932;31
2022/02/14 06:35:14;;;;;;;13.33;8.10;;;3.00;99.90;;;;;;2587858;54;20841;31
2022/02/14 06:37:46;;;;;;;13.43;8.50;;;3.00;99.90;;;;;;2587684;54;20033;31
2022/02/14 06:40:22;;;;;;;11.88;7.95;;;3.10;99.90;;;;;;2587674;54;20026;31
2022/02/14 06:42:54;;;;;;;19.33;7.40;;;3.10;99.90;;;;;;2587733;54;20870;31
2022/02/14 06:45:28;;;;;;;13.00;7.90;;;3.10;99.90;;;;;;2587989;54;20834;31
2022/02/14 06:48:05;;;;;;;13.33;8.77;;;3.10;99.90;;;;;;2587465;54;20141;31
2022/02/14 06:50:37;;;;;;;15.63;8.65;;;3.10;99.90;;;;;;2587732;54;20042;31
2022/02/14 06:53:15;;;;;;;13.10;7.88;;;3.20;99.90;;;;;;2587855;54;20667;31
2022/02/14 06:55:46;;;;;;;12.38;7.97;;;3.20;99.90;;;;;;2587906;54;20878;31
2022/02/14 06:58:20;;;;;;;13.80;8.55;;;3.20;99.90;;;;;;2587562;54;20046;31
2022/02/14 07:00:52;;;;;;;14.30;8.73;;;3.30;99.90;;;;;;2587703;54;20883;31
2022/02/14 07:03:28;;;;;;;15.52;9.32;;;3.30;99.90;;;;;;2587416;54;20559;31
2022/02/14 07:06:02;;;;;;;11.27;8.10;;;3.30;99.90;;;;;;2587594;54;20038;31
2022/02/14 07:08:36;;;;;;;11.90;8.10;;;3.50;99.90;;;;;;2587433;54;20981;31
2022/02/14 07:11:08;;;;;;;14.32;8.07;;;3.90;99.90;;;;;;2606251;46;20037;31
2022/02/14 07:13:41;;;;;;;14.33;8.13;;;4.30;99.90;;;;;;2606304;46;20032;31
2022/02/14 07:16:14;;;;;;;12.38;8.13;;;4.70;99.90;;;;;;2587683;54;20974;31
2022/02/14 07:18:50;;;;;;;13.85;8.00;;;5.10;99.90;;;;;;2587693;54;20031;31
2022/02/14 07:21:20;;;;;;;11.10;7.53;;;5.60;99.90;;;;;;2587543;54;20097;31
2022/02/14 07:23:54;;;;;;;12.30;8.25;;;6.00;99.90;;;;;;2587555;54;20149;31
2022/02/14 07:26:28;;;;;;;14.30;8.40;;;6.30;99.90;;;;;;2587495;54;20046;31
2022/02/14 07:29:01;;;;;;;13.20;8.57;;;6.60;99.90;;;;;;2587402;54;20033;31
2022/02/14 07:31:35;;;;;;;14.70;7.80;;;7.00;99.90;;;;;;2587427;54;21282;31
2022/02/14 07:34:09;;;;;;;13.65;8.63;;;7.40;99.90;;;;;;2586429;54;20087;31
2022/02/14 07:36:42;;;;;;;15.60;9.00;;;7.70;99.90;;;;;;2586700;54;20780;31
2022/02/14 07:39:14;;;;;;;16.42;8.30;;;8.00;99.90;;;;;;2586673;54;20881;31
2022/02/14 07:41:48;;;;;;;10.02;7.80;;;8.30;99.90;;;;;;2586472;54;20793;31
2022/02/14 07:44:22;;;;;;;14.77;8.40;;;8.40;99.90;;;;;;2586639;54;19935;31
2022/02/14 07:46:55;;;;;;;11.43;8.40;;;8.40;99.90;;;;;;2586679;54;20027;31
2022/02/14 07:49:32;;;;;;;12.60;8.35;;;8.60;99.90;;;;;;2586372;54;20857;31
2022/02/14 07:52:03;;;;;;;11.10;7.35;;;8.70;99.90;;;;;;2586113;54;20871;31
2022/02/14 07:54:34;;;;;;;15.15;8.55;;;8.70;99.90;;;;;;2586405;54;20835;31
2022/02/14 07:57:10;;;;;;;;;;;8.70;99.90;;;;;;2586722;54;20847;31
2022/02/14 07:59:41;;;;;;;10.70;7.70;;;8.70;99.90;;;;;;2586360;54;20037;31
2022/02/14 08:02:13;;;;;;;16.10;8.90;;;8.80;99.90;;;;;;2586812;54;20080;31
2022/02/14 08:04:50;;;;;;;12.43;8.13;;;8.90;99.90;;;;;;2586521;54;20120;31
2022/02/14 08:07:33;;;;;;;12.10;7.57;;;9.00;99.90;;;;;;2586447;54;20046;31
2022/02/14 08:10:28;;;;;;;12.13;8.27;;;8.80;99.90;;;;;;2586587;54;20026;31
2022/02/14 08:13:02;;;;;;;13.52;8.32;;;8.90;99.90;;;;;;2586482;54;20840;31
2022/02/14 08:15:38;;;;;;;15.60;8.67;;;8.90;99.90;;;;;;2586560;54;20018;31
2022/02/14 08:18:12;;;;;;;13.35;8.15;;;9.10;99.90;;;;;;2586587;54;20638;31
2022/02/14 08:20:50;;;;;;;12.43;7.65;;;9.20;99.90;;;;;;2586639;54;20875;31
2022/02/14 08:23:23;;;;;;;13.63;8.50;;;9.20;99.90;;;;;;2586419;54;20964;31
2022/02/14 08:25:57;;;;;;;15.25;8.73;;;9.30;99.90;;;;;;2586664;54;20056;31
2022/02/14 08:28:30;;;;;;;15.40;8.70;;;9.50;99.90;;;;;;2586455;54;20101;31
2022/02/14 08:31:03;;;;;;;16.97;9.70;;;9.50;99.90;;;;;;2586514;54;20100;31
2022/02/14 08:33:37;;;;;;;17.00;8.20;;;9.50;99.90;;;;;;2586406;54;20060;31
2022/02/14 08:36:14;;;;;;;17.17;8.68;;;9.50;99.80;;;;;;2586533;54;20124;31
2022/02/14 08:38:48;;;;;;;16.23;8.55;;;9.50;99.90;;;;;;2586162;54;20030;31
2022/02/14 08:41:21;;;;;;;12.53;7.47;;;9.60;99.90;;;;;;2586476;54;20736;31
2022/02/14 08:43:55;;;;;;;11.70;8.75;;;9.70;99.90;;;;;;2587178;46;20878;31
2022/02/14 08:46:28;;;;;;;12.45;8.18;;;9.70;99.90;;;;;;2586538;54;20664;31
2022/02/14 08:49:00;;;;;;;13.15;8.43;;;9.90;99.80;;;;;;2586267;54;20730;31
2022/02/14 08:51:35;;;;;;;14.00;8.15;;;10.00;99.50;;;;;;2586032;54;20826;31
2022/02/14 08:54:08;;;;;;;13.00;8.20;;;10.10;99.70;;;;;;2586569;54;20862;31
2022/02/14 08:56:42;;;;;;;14.40;8.45;;;10.00;99.40;;;;;;2586522;54;20935;31
2022/02/14 08:59:19;;;;;;;12.25;8.35;;;10.00;99.20;;;;;;2755212;31;20476;31
2022/02/14 09:01:54;;;;;;;10.73;8.07;;;10.00;99.20;;;;;;2586377;54;20072;31
2022/02/14 09:04:26;;;;;;;10.63;8.10;;;10.00;99.50;;;;;;2586214;54;20050;31
2022/02/14 09:07:05;;;;;;;13.00;7.70;;;10.00;99.40;;;;;;2586230;54;21080;31
2022/02/14 09:09:39;;;;;;;12.43;8.27;;;10.00;99.40;;;;;;2586500;54;20764;31
2022/02/14 09:12:13;;;;;;;13.95;7.80;;;10.20;99.80;;;;;;2586443;54;20050;31
2022/02/14 09:14:45;;;;;;;12.85;7.82;;;10.10;99.10;;;;;;2683753;39;21458;31
2022/02/14 09:17:18;;;;;;;12.73;8.63;;;10.30;98.80;;;;;;2586455;54;20029;31
2022/02/14 09:19:53;;;;;;;13.07;8.60;;;10.40;98.60;;;;;;2586488;54;20029;31
2022/02/14 09:22:30;;;;;;;12.05;7.60;;;10.40;98.20;;;;;;2586357;54;20101;31
2022/02/14 09:25:02;;;;;;;11.10;7.80;;;10.50;98.00;;;;;;2586634;46;20884;31
2022/02/14 09:27:36;;;;;;;11.25;7.68;;;10.40;98.10;;;;;;2586283;54;20886;31
2022/02/14 09:30:11;;;;;;;12.55;7.60;;;10.30;98.10;;;;;;2586075;54;20113;31
2022/02/14 09:32:46;;;;;;;10.45;7.57;;;10.30;98.40;;;;;;2586346;54;20871;31
2022/02/14 09:35:26;;;;;;;11.80;7.70;;;10.30;98.00;;;;;;2586408;54;19935;31
2022/02/14 09:38:04;;;;;;;13.67;8.33;;;10.30;98.20;;;;;;2586277;54;20853;31
2022/02/14 09:40:38;;;;;;;10.23;7.38;;;10.20;98.20;;;;;;2586228;54;20567;31
2022/02/14 09:43:16;;;;;;;11.03;7.43;;;10.00;97.60;;;;;;2587161;46;20942;31
2022/02/14 09:45:51;;;;;;;10.45;7.63;;;10.00;98.10;;;;;;2586395;54;20790;31
2022/02/14 09:48:24;;;;;;;10.80;7.00;;;10.10;97.80;;;;;;2604375;46;20465;31
2022/02/14 09:50:59;;;;;;;8.27;6.65;;;10.10;97.30;;;;;;2586235;54;20991;31
2022/02/14 09:53:35;;;;;;;15.35;6.88;;;10.20;97.40;;;;;;2586031;54;21000;31
2022/02/14 09:56:07;;;;;;;11.27;6.55;;;10.10;96.30;;;;;;2585718;54;20038;31
2022/02/14 09:58:43;;;;;;;15.20;6.57;;;10.20;96.60;;;;;;2590372;54;20108;31
2022/02/14 10:01:18;;;;;;;11.23;6.90;;;10.10;96.40;;;;;;2587366;46;20046;31
2022/02/14 10:03:53;;;;;;;10.70;7.50;;;10.10;95.50;;;;;;2585952;54;20051;31
2022/02/14 10:06:28;;;;;;;9.20;7.07;;;10.10;95.90;;;;;;2586186;46;20057;31
2022/02/14 10:09:13;;;;;;;11.27;6.90;;;10.10;95.70;;;;;;2585914;54;20061;31
2022/02/14 10:12:11;;;;;;;9.30;6.70;;;10.00;95.00;;;;;;2586484;54;20045;31
2022/02/14 10:14:55;;;;;;;12.20;7.00;;;10.10;95.20;;;;;;2603953;46;21256;31
2022/02/14 10:17:44;;;;;;;10.50;6.68;;;10.20;96.00;;;;;;2586371;54;20025;31
2022/02/14 10:20:18;;;;;;;9.70;6.40;;;10.10;94.30;;;;;;2586227;54;20029;31
2022/02/14 10:23:00;;;;;;;10.20;6.20;;;10.10;95.20;;;;;;2586028;54;21101;31
2022/02/14 10:25:40;;;;;;;12.60;7.07;;;9.90;94.50;;;;;;2586083;54;20060;31
2022/02/14 10:28:21;;;;;;;9.13;6.95;;;9.70;94.70;;;;;;2586169;54;20922;31
2022/02/14 10:31:02;;;;;;;9.37;6.60;;;9.70;95.00;;;;;;2585937;54;20737;31
2022/02/14 10:33:54;;;;;;;11.30;6.15;;;9.80;95.50;;;;;;2623402;47;20054;31
2022/02/14 10:36:28;;;;;;;12.75;6.55;;;9.90;95.90;;;;;;2621030;47;20035;31
2022/02/14 10:39:00;;;;;;;14.53;7.43;;;9.90;95.40;;;;;;2586372;54;21510;31
2022/02/14 10:41:37;;;;;;;9.57;7.13;;;9.80;95.10;;;;;;2603934;47;20426;31
2022/02/14 10:45:07;;;;;;;10.13;7.10;;;9.80;95.70;;;;;;2585852;54;20027;31
2022/02/14 10:47:13;;;;;;;10.70;7.00;;;9.70;94.80;;;;;;2586203;54;20085;31
2022/02/14 10:49:47;;;;;;;9.60;6.53;;;9.50;95.60;;;;;;2604369;47;20277;31
2022/02/14 10:52:21;;;;;;;10.95;7.20;;;9.40;95.30;;;;;;2586144;54;20856;31
2022/02/14 10:54:55;;;;;;;11.30;6.70;;;9.30;95.80;;;;;;2586053;54;20176;31
2022/02/14 10:57:32;;;;;;;11.45;6.50;;;9.30;96.00;;;;;;2585802;54;21148;31
2022/02/14 11:00:08;;;;;;;11.98;7.30;;;9.30;95.90;;;;;;2586114;54;20046;31
2022/02/14 11:02:43;;;;;;;12.50;6.75;;;9.20;95.80;;;;;;2586044;54;20042;31
2022/02/14 11:05:17;;;;;;;11.40;6.93;;;9.30;96.40;;;;;;2586080;54;20171;31
2022/02/14 11:07:50;;;;;;;9.23;6.75;;;9.30;96.40;;;;;;2586117;54;20023;31
2022/02/14 11:10:23;;;;;;;11.52;6.68;;;9.40;96.90;;;;;;2605382;46;20905;31
2022/02/14 11:13:01;;;;;;;10.10;6.60;;;9.50;97.10;;;;;;2586520;54;20032;31
2022/02/14 11:15:34;;;;;;;12.73;6.30;;;9.50;96.00;;;;;;2586559;54;20069;31
2022/02/14 11:18:09;;;;;;;9.40;7.07;;;9.40;95.80;;;;;;2586764;54;20026;31
2022/02/14 11:20:42;;;;;;;15.05;6.95;;;9.40;96.30;;;;;;2586882;54;20908;31
2022/02/14 11:23:14;;;;;;;10.77;7.03;;;9.20;96.40;;;;;;2586646;54;20040;31
2022/02/14 11:25:50;;;;;;;9.95;6.32;;;9.20;96.60;;;;;;2586666;54;20990;31
2022/02/14 11:28:28;;;;;;;11.57;7.30;;;9.10;96.60;;;;;;2587019;54;20907;31
2022/02/14 11:31:11;;;;;;;13.67;7.87;;;9.00;96.30;;;;;;2586527;54;20038;31
2022/02/14 11:33:45;;;;;;;12.50;7.15;;;9.00;96.30;;;;;;2586729;54;20313;31
2022/02/14 11:36:19;;;;;;;10.82;6.88;;;8.90;96.00;;;;;;2587505;46;20570;31
2022/02/14 11:38:54;;;;;;;9.52;6.72;;;8.90;96.40;;;;;;2592534;46;20446;31
2022/02/14 11:41:34;;;;;;;12.27;7.28;;;8.90;96.40;;;;;;2586599;54;20046;31
2022/02/14 11:44:24;;;;;;;11.40;6.97;;;8.90;97.10;;;;;;2605691;46;20849;31
2022/02/14 11:47:14;;;;;;;12.65;6.75;;;8.80;96.40;;;;;;2586611;54;20845;31
2022/02/14 11:49:47;;;;;;;12.68;7.47;;;8.80;96.40;;;;;;2591299;46;20856;31
2022/02/14 11:52:34;;;;;;;10.00;6.87;;;8.80;97.00;;;;;;2586492;54;20838;31
2022/02/14 11:55:08;;;;;;;11.35;7.05;;;8.70;96.60;;;;;;2587075;54;20073;31
2022/02/14 11:57:46;;;;;;;13.02;7.65;;;8.60;96.80;;;;;;2586641;54;20887;31
2022/02/14 12:00:30;;;;;;;11.50;7.20;;;8.60;97.00;;;;;;2586426;54;20023;31
2022/02/14 12:03:18;;;;;;;9.45;7.00;;;8.60;97.60;;;;;;2586687;54;20047;31
2022/02/14 12:05:52;;;;;;;10.80;7.20;;;8.60;97.10;;;;;;2586740;54;20064;31
2022/02/14 12:08:24;;;;;;;11.15;6.50;;;8.60;97.30;;;;;;2586887;54;20037;31
2022/02/14 12:10:57;;;;;;;11.77;6.70;;;8.50;97.10;;;;;;2586928;54;20118;31
2022/02/14 12:13:34;;;;;;;9.60;6.53;;;8.50;96.70;;;;;;2586664;54;21439;31
2022/02/14 12:21:50;;;;;;;10.45;6.75;;;8.40;97.10;;;;;;2586749;54;20048;31
2022/02/14 12:24:26;;;;;;;13.57;6.40;;;8.50;97.40;;;;;;2586456;54;21327;31
2022/02/14 12:27:01;;;;;;;8.68;6.60;;;8.50;97.00;;;;;;2586632;54;20050;31
2022/02/14 12:29:40;;;;;;;10.80;6.45;;;8.50;97.10;;;;;;2684389;39;20500;31
2022/02/14 12:32:18;;;;;;;15.15;6.75;;;8.60;96.80;;;;;;2684471;39;21175;31
2022/02/14 12:34:53;;;;;;;18.92;9.48;;;8.60;97.10;;;;;;2617813;46;20027;31
2022/02/14 12:37:27;;;;;;;9.50;6.65;;;8.70;98.50;;;;;;2608848;54;20023;31
2022/02/14 12:40:02;;;;;;;10.20;6.90;;;8.70;96.30;;;;;;2593641;54;20843;31
2022/02/14 12:42:34;;;;;;;12.70;6.90;;;8.60;96.50;;;;;;2588416;54;21018;31
2022/02/14 12:45:08;;;;;;;10.93;6.20;;;8.50;96.70;;;;;;2591517;46;20146;31
2022/02/14 12:47:43;;;;;;;9.67;6.33;;;8.50;97.10;;;;;;2586111;54;20855;31
2022/02/14 12:50:19;;;;;;;11.30;6.27;;;8.60;96.80;;;;;;2587017;46;20260;31
2022/02/14 12:52:52;;;;;;;14.55;6.20;;;8.50;95.80;;;;;;2586404;54;20170;31
2022/02/14 12:55:29;;;;;;;12.57;6.15;;;8.40;96.20;;;;;;2586194;54;20023;31
2022/02/14 12:58:01;;;;;;;8.30;6.40;;;8.40;96.30;;;;;;2586253;54;20917;31
2022/02/14 13:00:38;;;;;;;15.18;7.60;;;8.40;97.00;;;;;;2591511;54;21459;31
2022/02/14 13:03:15;;;;;;;9.70;5.60;;;8.50;96.90;;;;;;2592968;39;21237;31
2022/02/14 13:05:51;;;;;;;10.02;6.70;;;8.50;96.70;;;;;;2586681;54;21103;31
2022/02/14 13:08:26;;;;;;;17.52;6.75;;;8.60;96.70;;;;;;2605102;46;20864;31
2022/02/14 13:11:01;;;;;;;8.23;6.45;;;8.60;96.90;;;;;;2586405;54;20089;31
2022/02/14 13:13:41;;;;;;;17.02;6.60;;;8.60;97.00;;;;;;2586359;54;20911;31
2022/02/14 13:16:15;;;;;;;11.80;6.72;;;8.60;97.00;;;;;;2586309;54;19938;31
2022/02/14 13:18:51;;;;;;;9.80;5.45;;;8.60;95.80;;;;;;2586353;54;20905;31
2022/02/14 13:21:25;;;;;;;12.13;6.63;;;8.60;96.00;;;;;;2586582;54;20018;31
2022/02/14 13:23:59;;;;;;;8.57;5.93;;;8.60;95.70;;;;;;2586377;54;20962;31
2022/02/14 13:26:33;;;;;;;9.75;5.88;;;8.60;96.20;;;;;;2586132;54;20731;31
2022/02/14 13:29:07;;;;;;;12.48;6.28;;;8.60;96.10;;;;;;2588436;39;20891;31
2022/02/14 13:31:39;;;;;;;11.10;6.35;;;8.60;96.70;;;;;;2586044;54;20146;31
2022/02/14 13:34:16;;;;;;;8.57;5.90;;;8.60;96.80;;;;;;2586476;54;20733;31
2022/02/14 13:36:53;;;;;;;9.55;6.40;;;8.60;95.40;;;;;;2586110;54;19941;31
2022/02/14 13:39:31;;;;;;;13.57;6.20;;;8.60;95.70;;;;;;2586398;54;20847;31
2022/02/14 13:42:07;;;;;;;12.82;6.72;;;8.60;95.80;;;;;;2586293;54;20038;31